createdAt,value
2024-03-19T00:00:13.037Z,56.89
2024-03-19T00:01:13.033Z,56.90
2024-03-19T00:02:12.886Z,56.86
2024-03-19T00:03:12.916Z,56.87
2024-03-19T00:04:12.879Z,56.84
2024-03-19T00:05:12.844Z,56.84
2024-03-19T00:06:12.861Z,56.86
2024-03-19T00:07:12.853Z,56.84
2024-03-19T00:08:12.807Z,56.88
2024-03-19T00:10:25.607Z,56.86
2024-03-19T00:11:25.617Z,56.86
2024-03-19T00:12:25.618Z,56.84
2024-03-19T00:13:25.574Z,56.79
2024-03-19T00:14:25.574Z,56.79
2024-03-19T00:15:25.553Z,56.82
2024-03-19T00:16:25.564Z,56.81
2024-03-19T00:17:25.857Z,56.84
2024-03-19T00:18:25.596Z,56.85
2024-03-19T00:19:25.522Z,56.92
2024-03-19T00:20:25.832Z,56.95
2024-03-19T00:21:25.803Z,56.96
2024-03-19T00:22:25.490Z,56.94
2024-03-19T00:23:25.483Z,56.95
2024-03-19T00:24:25.490Z,56.93
2024-03-19T00:25:25.493Z,56.96
2024-03-19T00:26:25.447Z,56.99
2024-03-19T00:27:25.427Z,57.01
2024-03-19T00:28:25.674Z,57.01
2024-03-19T00:29:25.427Z,56.91
2024-03-19T00:30:25.744Z,56.92
2024-03-19T00:31:25.384Z,56.86
2024-03-19T00:32:25.389Z,56.89
2024-03-19T00:33:25.656Z,56.90
2024-03-19T00:34:25.373Z,56.87
2024-03-19T00:35:25.363Z,56.81
2024-03-19T00:36:25.656Z,56.82
2024-03-19T00:37:25.330Z,56.89
2024-03-19T00:38:25.301Z,56.93
2024-03-19T00:39:25.314Z,57.04
2024-03-19T00:40:25.314Z,57.02
2024-03-19T00:41:25.286Z,57.08
2024-03-19T00:42:25.322Z,57.16
2024-03-19T00:43:25.513Z,57.31
2024-03-19T00:44:25.260Z,57.36
2024-03-19T00:45:25.551Z,57.43
2024-03-19T00:46:25.626Z,57.49
2024-03-19T00:47:25.490Z,57.60
2024-03-19T00:48:25.267Z,57.63
2024-03-19T00:49:25.180Z,57.64
2024-03-19T00:50:25.202Z,57.58
2024-03-19T00:51:25.460Z,57.56
2024-03-19T00:52:25.415Z,57.49
2024-03-19T00:53:25.439Z,57.40
2024-03-19T00:54:25.177Z,57.44
2024-03-19T00:55:25.125Z,57.49
2024-03-19T00:56:25.128Z,57.55
2024-03-19T00:57:25.088Z,57.62
2024-03-19T00:58:25.169Z,57.69
2024-03-19T00:59:25.097Z,57.78
2024-03-19T01:00:25.074Z,57.81
2024-03-19T01:01:25.066Z,57.84
2024-03-19T01:02:25.327Z,57.84
2024-03-19T01:03:25.053Z,57.87
2024-03-19T01:04:25.508Z,57.82
2024-03-19T01:05:25.067Z,57.75
2024-03-19T01:06:25.132Z,57.71
2024-03-19T01:07:25.009Z,57.68
2024-03-19T01:08:25.011Z,57.68
2024-03-19T01:09:24.974Z,57.71
2024-03-19T01:10:24.996Z,57.74
2024-03-19T01:11:25.059Z,57.85
2024-03-19T01:12:24.937Z,57.91
2024-03-19T01:13:25.273Z,57.99
2024-03-19T01:14:24.930Z,58.03
2024-03-19T01:15:25.204Z,58.06
2024-03-19T01:16:25.213Z,58.11
2024-03-19T01:17:24.903Z,58.16
2024-03-19T01:18:24.920Z,58.22
2024-03-19T01:19:24.904Z,58.21
2024-03-19T01:20:24.849Z,58.21
2024-03-19T01:21:24.854Z,58.20
2024-03-19T01:22:24.853Z,58.25
2024-03-19T01:23:24.906Z,58.27
2024-03-19T01:24:24.835Z,58.33
2024-03-19T01:25:24.827Z,58.38
2024-03-19T01:26:24.802Z,58.58
2024-03-19T01:27:25.040Z,58.71
2024-03-19T01:28:24.756Z,58.74
2024-03-19T01:29:24.744Z,58.78
2024-03-19T01:30:25.082Z,58.86
2024-03-19T01:31:24.745Z,58.86
2024-03-19T01:32:24.726Z,58.94
2024-03-19T01:33:24.703Z,58.99
2024-03-19T01:34:24.711Z,59.10
2024-03-19T01:35:24.699Z,59.14
2024-03-19T01:36:24.694Z,59.13
2024-03-19T01:37:24.662Z,59.13
2024-03-19T01:38:24.670Z,59.15
2024-03-19T01:39:24.656Z,59.27
2024-03-19T01:40:24.660Z,59.35
2024-03-19T01:41:24.627Z,59.44
2024-03-19T01:42:24.611Z,59.45
2024-03-19T01:43:24.596Z,59.45
2024-03-19T01:44:24.586Z,59.44
2024-03-19T01:45:24.571Z,59.41
2024-03-19T01:46:24.670Z,59.41
2024-03-19T01:47:24.561Z,59.42
2024-03-19T01:48:24.536Z,59.45
2024-03-19T01:49:24.552Z,59.50
2024-03-19T01:50:24.519Z,59.53
2024-03-19T01:51:24.541Z,59.55
2024-03-19T01:52:24.589Z,59.56
2024-03-19T01:53:24.749Z,59.67
2024-03-19T01:54:24.522Z,59.82
2024-03-19T01:55:24.457Z,59.88
2024-03-19T01:56:24.578Z,59.96
2024-03-19T01:57:24.482Z,60.04
2024-03-19T01:58:24.430Z,60.14
2024-03-19T01:59:24.433Z,60.20
2024-03-19T02:00:24.437Z,60.22
2024-03-19T02:01:24.651Z,60.23
2024-03-19T02:02:24.386Z,60.12
2024-03-19T02:03:24.367Z,60.06
2024-03-19T02:04:24.418Z,59.97
2024-03-19T02:05:24.366Z,59.89
2024-03-19T02:06:24.367Z,59.91
2024-03-19T02:07:24.399Z,59.96
2024-03-19T02:08:24.313Z,60.00
2024-03-19T02:09:24.308Z,60.10
2024-03-19T02:10:24.319Z,60.18
2024-03-19T02:11:24.302Z,60.28
2024-03-19T02:12:24.324Z,60.42
2024-03-19T02:13:27.162Z,60.54
2024-03-19T02:14:24.296Z,60.54
2024-03-19T02:15:24.256Z,60.57
2024-03-19T02:16:24.262Z,60.62
2024-03-19T02:17:24.219Z,60.65
2024-03-19T02:18:24.249Z,60.63
2024-03-19T02:19:24.223Z,60.64
2024-03-19T02:20:24.216Z,60.67
2024-03-19T02:21:24.196Z,60.68
2024-03-19T02:22:24.307Z,60.64
2024-03-19T02:23:24.190Z,60.66
2024-03-19T02:24:24.197Z,60.71
2024-03-19T02:25:24.135Z,60.69
2024-03-19T02:26:24.149Z,60.63
2024-03-19T02:27:24.149Z,60.74
2024-03-19T02:28:24.121Z,60.81
2024-03-19T02:29:24.113Z,60.83
2024-03-19T02:30:24.153Z,60.85
2024-03-19T02:31:24.076Z,60.91
2024-03-19T02:32:24.084Z,60.92
2024-03-19T02:33:24.105Z,61.07
2024-03-19T02:34:24.072Z,61.16
2024-03-19T02:35:24.025Z,61.16
2024-03-19T02:36:24.032Z,61.13
2024-03-19T02:37:24.068Z,61.13
2024-03-19T02:38:24.030Z,61.09
2024-03-19T02:39:23.989Z,61.12
2024-03-19T02:40:23.974Z,61.15
2024-03-19T02:41:24.013Z,61.20
2024-03-19T02:42:23.946Z,61.36
2024-03-19T02:43:23.993Z,61.40
2024-03-19T02:44:23.926Z,61.44
2024-03-19T02:45:23.972Z,61.55
2024-03-19T02:46:23.904Z,61.69
2024-03-19T02:47:23.896Z,61.84
2024-03-19T02:48:23.896Z,61.92
2024-03-19T02:49:23.915Z,61.93
2024-03-19T02:50:23.861Z,61.97
2024-03-19T02:51:23.872Z,62.10
2024-03-19T02:52:23.839Z,62.10
2024-03-19T02:53:23.846Z,62.12
2024-03-19T02:54:23.829Z,62.35
2024-03-19T02:55:23.871Z,62.37
2024-03-19T02:56:23.813Z,62.50
2024-03-19T02:57:23.812Z,62.62
2024-03-19T02:58:23.794Z,62.61
2024-03-19T02:59:23.795Z,62.57
2024-03-19T03:00:23.877Z,62.56
2024-03-19T03:01:23.777Z,62.60
2024-03-19T03:02:23.734Z,62.72
2024-03-19T03:03:23.771Z,62.76
2024-03-19T03:04:23.741Z,62.79
2024-03-19T03:05:23.736Z,62.75
2024-03-19T03:06:23.716Z,62.92
2024-03-19T03:07:23.726Z,62.92
2024-03-19T03:08:23.722Z,62.93
2024-03-19T03:09:23.707Z,62.97
2024-03-19T03:10:23.667Z,63.01
2024-03-19T03:11:23.717Z,63.07
2024-03-19T03:12:23.683Z,63.04
2024-03-19T03:13:23.613Z,63.07
2024-03-19T03:14:23.636Z,63.07
2024-03-19T03:15:23.597Z,63.10
2024-03-19T03:16:23.654Z,63.10
2024-03-19T03:17:23.580Z,63.13
2024-03-19T03:18:23.561Z,63.13
2024-03-19T03:19:23.552Z,63.19
2024-03-19T03:20:23.559Z,63.18
2024-03-19T03:21:23.536Z,63.27
2024-03-19T03:22:23.572Z,63.34
2024-03-19T03:23:23.520Z,63.32
2024-03-19T03:24:23.496Z,63.30
2024-03-19T03:25:23.494Z,63.31
2024-03-19T03:26:23.535Z,63.38
2024-03-19T03:27:23.508Z,63.40
2024-03-19T03:28:23.458Z,63.43
2024-03-19T03:29:23.467Z,63.50
2024-03-19T03:30:23.492Z,63.49
2024-03-19T03:31:23.446Z,63.47
2024-03-19T03:32:23.433Z,63.51
2024-03-19T03:33:23.403Z,63.48
2024-03-19T03:34:23.453Z,63.55
2024-03-19T03:35:23.388Z,63.63
2024-03-19T03:36:23.414Z,63.60
2024-03-19T03:37:23.478Z,63.62
2024-03-19T03:38:23.373Z,63.59
2024-03-19T03:39:23.377Z,63.62
2024-03-19T03:40:23.367Z,63.64
2024-03-19T03:41:23.333Z,63.69
2024-03-19T03:42:27.603Z,63.80
2024-03-19T03:43:23.408Z,63.81
2024-03-19T03:44:23.318Z,63.74
2024-03-19T03:45:23.321Z,63.71
2024-03-19T03:46:23.263Z,63.65
2024-03-19T03:47:23.293Z,63.70
2024-03-19T03:48:23.298Z,63.79
2024-03-19T03:49:23.241Z,63.83
2024-03-19T03:50:23.237Z,63.84
2024-03-19T03:51:23.229Z,63.90
2024-03-19T03:52:23.237Z,63.94
2024-03-19T03:53:23.217Z,64.04
2024-03-19T03:54:23.274Z,64.00
2024-03-19T03:55:23.178Z,64.07
2024-03-19T03:56:23.145Z,64.15
2024-03-19T03:57:23.150Z,64.18
2024-03-19T03:58:23.130Z,64.20
2024-03-19T03:59:23.148Z,64.18
2024-03-19T04:00:23.119Z,64.25
2024-03-19T04:01:23.162Z,64.31
2024-03-19T04:02:23.136Z,64.32
2024-03-19T04:03:23.079Z,64.35
2024-03-19T04:04:23.084Z,64.33
2024-03-19T04:05:23.111Z,64.35
2024-03-19T04:06:23.119Z,64.32
2024-03-19T04:07:23.046Z,64.25
2024-03-19T04:08:23.055Z,64.14
2024-03-19T04:09:31.124Z,64.13
2024-03-19T04:10:22.995Z,64.08
2024-03-19T04:11:22.990Z,63.98
2024-03-19T04:12:23.013Z,63.89
2024-03-19T04:13:22.999Z,63.94
2024-03-19T04:14:23.022Z,64.04
2024-03-19T04:15:22.965Z,64.15
2024-03-19T04:16:22.938Z,64.12
2024-03-19T04:17:22.939Z,64.14
2024-03-19T04:18:22.936Z,64.09
2024-03-19T04:19:22.994Z,64.11
2024-03-19T04:20:22.958Z,64.20
2024-03-19T04:21:22.888Z,64.18
2024-03-19T04:22:22.899Z,64.24
2024-03-19T04:23:22.845Z,64.26
2024-03-19T04:24:22.860Z,64.37
2024-03-19T04:25:22.839Z,64.42
2024-03-19T04:26:22.832Z,64.51
2024-03-19T04:27:22.808Z,64.56
2024-03-19T04:28:22.804Z,64.64
2024-03-19T04:29:22.801Z,64.64
2024-03-19T04:30:22.832Z,64.69
2024-03-19T04:31:22.769Z,64.68
2024-03-19T04:32:22.760Z,64.77
2024-03-19T04:33:22.752Z,64.78
2024-03-19T04:34:22.756Z,64.76
2024-03-19T04:35:22.806Z,64.86
2024-03-19T04:36:22.721Z,64.91
2024-03-19T04:37:22.728Z,64.95
2024-03-19T04:38:22.718Z,65.00
2024-03-19T04:39:22.692Z,65.02
2024-03-19T04:40:22.757Z,65.08
2024-03-19T04:41:22.668Z,65.18
2024-03-19T04:42:22.644Z,65.20
2024-03-19T04:43:22.680Z,65.18
2024-03-19T04:44:22.649Z,65.25
2024-03-19T04:45:22.646Z,65.30
2024-03-19T04:46:22.610Z,65.39
2024-03-19T04:47:22.620Z,65.42
2024-03-19T04:48:22.588Z,65.40
2024-03-19T04:49:22.593Z,65.38
2024-03-19T04:50:22.606Z,65.56
2024-03-19T04:51:22.572Z,65.58
2024-03-19T04:52:22.551Z,65.65
2024-03-19T04:53:22.528Z,65.76
2024-03-19T04:54:22.583Z,65.80
2024-03-19T04:55:22.504Z,65.80
2024-03-19T04:56:22.499Z,65.78
2024-03-19T04:57:22.521Z,65.85
2024-03-19T04:58:22.513Z,65.94
2024-03-19T04:59:22.492Z,65.90
2024-03-19T05:00:22.458Z,65.92
2024-03-19T05:01:22.451Z,65.89
2024-03-19T05:02:22.521Z,65.97
2024-03-19T05:03:22.421Z,66.89
2024-03-19T05:04:22.421Z,67.12
2024-03-19T05:05:22.421Z,66.59
2024-03-19T05:06:22.418Z,66.27
2024-03-19T05:07:22.492Z,66.15
2024-03-19T05:08:22.375Z,66.12
2024-03-19T05:09:22.414Z,66.11
2024-03-19T05:10:22.408Z,66.18
2024-03-19T05:11:22.348Z,66.20
2024-03-19T05:12:22.404Z,66.17
2024-03-19T05:13:22.353Z,66.28
2024-03-19T05:14:22.354Z,66.30
2024-03-19T05:15:22.438Z,66.34
2024-03-19T05:16:22.299Z,66.33
2024-03-19T05:17:22.467Z,66.29
2024-03-19T05:18:22.327Z,66.31
2024-03-19T05:19:22.309Z,66.24
2024-03-19T05:20:22.418Z,66.23
2024-03-19T05:21:22.256Z,66.18
2024-03-19T05:22:22.220Z,66.20
2024-03-19T05:23:22.199Z,66.25
2024-03-19T05:24:22.600Z,66.28
2024-03-19T05:25:22.212Z,66.29
2024-03-19T05:26:22.213Z,66.34
2024-03-19T05:27:22.218Z,66.41
2024-03-19T05:28:22.217Z,66.53
2024-03-19T05:29:22.254Z,66.62
2024-03-19T05:30:22.189Z,66.75
2024-03-19T05:31:22.258Z,66.82
2024-03-19T05:32:22.174Z,66.84
2024-03-19T05:33:22.113Z,66.88
2024-03-19T05:34:22.092Z,66.89
2024-03-19T05:35:22.102Z,66.87
2024-03-19T05:36:22.076Z,66.92
2024-03-19T05:37:22.175Z,66.93
2024-03-19T05:38:22.037Z,67.05
2024-03-19T05:39:22.128Z,67.14
2024-03-19T05:40:22.285Z,67.14
2024-03-19T05:41:22.096Z,67.13
2024-03-19T05:42:22.061Z,67.20
2024-03-19T05:43:22.014Z,67.26
2024-03-19T05:44:22.021Z,67.25
2024-03-19T05:45:21.970Z,67.23
2024-03-19T05:46:22.316Z,67.14
2024-03-19T05:47:22.081Z,67.16
2024-03-19T05:48:22.043Z,67.18
2024-03-19T05:49:21.979Z,67.09
2024-03-19T05:50:21.926Z,67.10
2024-03-19T05:51:21.914Z,67.11
2024-03-19T05:52:21.942Z,67.05
2024-03-19T05:53:24.411Z,67.03
2024-03-19T05:54:21.906Z,66.99
2024-03-19T05:55:21.849Z,67.08
2024-03-19T05:56:21.835Z,67.12
2024-03-19T05:57:21.936Z,67.09
2024-03-19T05:58:21.911Z,67.10
2024-03-19T05:59:21.804Z,67.11
2024-03-19T06:00:21.825Z,67.11
2024-03-19T06:01:21.891Z,67.13
2024-03-19T06:02:21.807Z,67.09
2024-03-19T06:03:21.781Z,67.09
2024-03-19T06:04:21.764Z,67.09
2024-03-19T06:05:21.803Z,67.14
2024-03-19T06:06:21.729Z,67.19
2024-03-19T06:07:21.757Z,67.27
2024-03-19T06:08:21.710Z,67.35
2024-03-19T06:09:21.702Z,67.40
2024-03-19T06:10:21.716Z,67.49
2024-03-19T06:11:21.684Z,67.60
2024-03-19T06:12:21.686Z,67.70
2024-03-19T06:13:21.719Z,67.85
2024-03-19T06:14:21.709Z,67.98
2024-03-19T06:15:21.871Z,68.04
2024-03-19T06:16:21.660Z,68.06
2024-03-19T06:17:21.604Z,68.10
2024-03-19T06:18:21.626Z,68.10
2024-03-19T06:19:26.195Z,68.05
2024-03-19T06:20:22.585Z,67.99
2024-03-19T06:21:21.641Z,67.87
2024-03-19T06:22:21.601Z,67.83
2024-03-19T06:23:21.582Z,67.71
2024-03-19T06:24:21.573Z,67.52
2024-03-19T06:25:21.547Z,67.40
2024-03-19T06:26:21.581Z,67.33
2024-03-19T06:27:21.630Z,67.25
2024-03-19T06:28:21.508Z,67.19
2024-03-19T06:29:21.526Z,67.17
2024-03-19T06:30:21.564Z,67.15
2024-03-19T06:31:21.456Z,67.18
2024-03-19T06:32:21.460Z,67.09
2024-03-19T06:33:21.457Z,67.06
2024-03-19T06:34:25.263Z,67.05
2024-03-19T06:35:21.417Z,67.03
2024-03-19T06:36:21.399Z,67.04
2024-03-19T06:37:21.396Z,67.03
2024-03-19T06:38:21.408Z,67.03
2024-03-19T06:39:21.467Z,67.00
2024-03-19T06:40:21.403Z,66.99
2024-03-19T06:41:21.363Z,67.02
2024-03-19T06:42:21.350Z,67.05
2024-03-19T06:43:21.379Z,67.06
2024-03-19T06:44:21.321Z,67.09
2024-03-19T06:45:21.340Z,67.08
2024-03-19T06:46:21.371Z,67.12
2024-03-19T06:47:21.314Z,67.17
2024-03-19T06:48:21.280Z,67.23
2024-03-19T06:49:21.257Z,67.28
2024-03-19T06:50:21.388Z,67.39
2024-03-19T06:51:21.235Z,67.40
2024-03-19T06:52:21.224Z,67.40
2024-03-19T06:53:21.219Z,67.37
2024-03-19T06:54:21.282Z,67.32
2024-03-19T06:55:21.280Z,67.28
2024-03-19T06:56:21.225Z,67.27
2024-03-19T06:57:21.178Z,67.27
2024-03-19T06:58:21.184Z,67.27
2024-03-19T06:59:21.200Z,67.24
2024-03-19T07:00:21.233Z,67.22
2024-03-19T07:01:21.155Z,67.23
2024-03-19T07:02:21.920Z,67.30
2024-03-19T07:03:21.733Z,67.36
2024-03-19T07:04:21.613Z,67.43
2024-03-19T07:05:21.545Z,67.45
2024-03-19T07:06:21.745Z,67.49
2024-03-19T07:07:22.072Z,67.43
2024-03-19T07:08:21.624Z,67.39
2024-03-19T07:09:21.114Z,67.37
2024-03-19T07:10:21.072Z,67.38
2024-03-19T07:11:21.020Z,67.30
2024-03-19T07:12:21.082Z,67.22
2024-03-19T07:13:21.048Z,67.15
2024-03-19T07:14:20.993Z,67.06
2024-03-19T07:15:21.051Z,67.10
2024-03-19T07:16:20.972Z,67.09
2024-03-19T07:17:23.166Z,67.19
2024-03-19T07:18:20.980Z,67.28
2024-03-19T07:19:20.937Z,67.25
2024-03-19T07:20:20.967Z,67.39
2024-03-19T07:21:20.928Z,67.39
2024-03-19T07:22:20.977Z,67.30
2024-03-19T07:23:20.928Z,67.23
2024-03-19T07:24:20.881Z,67.17
2024-03-19T07:25:20.935Z,67.14
2024-03-19T07:26:20.949Z,67.14
2024-03-19T07:27:20.850Z,67.12
2024-03-19T07:28:20.830Z,67.20
2024-03-19T07:29:20.839Z,67.31
2024-03-19T07:30:20.907Z,67.30
2024-03-19T07:31:20.829Z,67.40
2024-03-19T07:32:20.821Z,67.36
2024-03-19T07:33:20.780Z,67.39
2024-03-19T07:34:20.783Z,67.33
2024-03-19T07:35:20.951Z,67.28
2024-03-19T07:36:20.770Z,67.20
2024-03-19T07:37:20.735Z,67.15
2024-03-19T07:38:20.798Z,67.03
2024-03-19T07:39:20.753Z,66.89
2024-03-19T07:40:20.785Z,66.82
2024-03-19T07:41:20.912Z,66.73
2024-03-19T07:42:20.713Z,66.77
2024-03-19T07:43:20.863Z,66.75
2024-03-19T07:44:20.690Z,66.77
2024-03-19T07:45:20.689Z,66.78
2024-03-19T07:46:20.653Z,66.88
2024-03-19T07:47:20.768Z,66.99
2024-03-19T07:48:20.633Z,67.04
2024-03-19T07:49:20.618Z,67.09
2024-03-19T07:50:20.601Z,67.05
2024-03-19T07:51:20.715Z,67.08
2024-03-19T07:52:20.577Z,67.13
2024-03-19T07:53:20.594Z,67.14
2024-03-19T07:54:20.558Z,67.14
2024-03-19T07:55:20.637Z,67.19
2024-03-19T07:56:20.612Z,67.22
2024-03-19T07:57:20.542Z,67.26
2024-03-19T07:58:20.527Z,67.32
2024-03-19T07:59:20.503Z,67.32
2024-03-19T08:00:20.533Z,67.14
2024-03-19T08:01:20.517Z,67.02
2024-03-19T08:02:20.564Z,66.98
2024-03-19T08:03:20.533Z,67.02
2024-03-19T08:04:20.449Z,66.93
2024-03-19T08:05:20.499Z,66.86
2024-03-19T08:06:20.464Z,66.83
2024-03-19T08:07:20.487Z,66.88
2024-03-19T08:08:20.405Z,66.84
2024-03-19T08:09:20.429Z,66.83
2024-03-19T08:10:20.381Z,66.70
2024-03-19T08:11:20.374Z,66.55
2024-03-19T08:12:20.392Z,66.52
2024-03-19T08:13:20.349Z,66.44
2024-03-19T08:14:20.353Z,66.37
2024-03-19T08:15:20.352Z,66.32
2024-03-19T08:16:20.379Z,66.35
2024-03-19T08:17:20.443Z,66.30
2024-03-19T08:18:20.326Z,66.29
2024-03-19T08:19:20.288Z,66.27
2024-03-19T08:20:20.337Z,66.27
2024-03-19T08:21:20.296Z,66.27
2024-03-19T08:22:20.277Z,66.17
2024-03-19T08:23:20.394Z,66.17
2024-03-19T08:24:20.238Z,66.12
2024-03-19T08:25:20.264Z,66.09
2024-03-19T08:26:20.236Z,66.15
2024-03-19T08:27:20.221Z,66.11
2024-03-19T08:28:21.781Z,66.10
2024-03-19T08:29:20.214Z,66.06
2024-03-19T08:30:21.606Z,66.27
2024-03-19T08:31:20.147Z,66.09
2024-03-19T08:32:20.140Z,65.85
2024-03-19T08:33:20.200Z,65.82
2024-03-19T08:34:20.113Z,65.72
2024-03-19T08:35:20.114Z,65.83
2024-03-19T08:36:20.127Z,65.82
2024-03-19T08:37:20.152Z,65.83
2024-03-19T08:38:20.071Z,65.79
2024-03-19T08:39:20.248Z,65.84
2024-03-19T08:40:20.052Z,65.84
2024-03-19T08:41:20.042Z,65.82
2024-03-19T08:42:20.029Z,65.83
2024-03-19T08:43:20.182Z,65.63
2024-03-19T08:44:20.001Z,65.55
2024-03-19T08:45:20.074Z,65.46
2024-03-19T08:46:19.985Z,65.60
2024-03-19T08:47:20.009Z,66.01
2024-03-19T08:48:20.006Z,66.14
2024-03-19T08:49:19.956Z,65.88
2024-03-19T08:50:19.941Z,66.12
2024-03-19T08:51:20.027Z,65.74
2024-03-19T08:52:19.919Z,65.13
2024-03-19T08:53:19.944Z,64.71
2024-03-19T08:54:19.940Z,64.39
2024-03-19T08:55:20.051Z,64.54
2024-03-19T08:56:19.874Z,64.85
2024-03-19T08:57:19.860Z,64.57
2024-03-19T08:58:19.899Z,64.42
2024-03-19T08:59:19.903Z,63.91
2024-03-19T09:00:19.840Z,63.60
2024-03-19T09:01:19.888Z,63.16
2024-03-19T09:02:19.888Z,63.00
2024-03-19T09:03:19.852Z,63.06
2024-03-19T09:04:19.872Z,62.88
2024-03-19T09:05:19.797Z,62.42
2024-03-19T09:06:19.821Z,62.21
2024-03-19T09:07:19.774Z,62.25
2024-03-19T09:08:19.751Z,62.00
2024-03-19T09:09:19.786Z,61.85
2024-03-19T09:10:19.751Z,61.64
2024-03-19T09:11:20.749Z,61.51
2024-03-19T09:12:19.844Z,61.52
2024-03-19T09:13:19.702Z,61.48
2024-03-19T09:14:19.727Z,61.42
2024-03-19T09:15:19.685Z,61.24
2024-03-19T09:16:19.718Z,60.87
2024-03-19T09:17:19.663Z,60.74
2024-03-19T09:18:19.660Z,60.55
2024-03-19T09:19:19.700Z,60.44
2024-03-19T09:20:19.680Z,60.33
2024-03-19T09:21:19.609Z,60.17
2024-03-19T09:22:19.612Z,60.10
2024-03-19T09:23:19.587Z,60.06
2024-03-19T09:24:19.608Z,60.05
2024-03-19T09:25:19.560Z,59.46
2024-03-19T09:26:19.659Z,59.01
2024-03-19T09:27:19.559Z,58.39
2024-03-19T09:28:19.554Z,58.29
2024-03-19T09:29:19.553Z,58.44
2024-03-19T09:30:19.514Z,58.09
2024-03-19T09:31:19.495Z,57.75
2024-03-19T09:32:19.813Z,57.55
2024-03-19T09:33:19.563Z,57.02
2024-03-19T09:34:19.536Z,56.81
2024-03-19T09:35:19.459Z,56.66
2024-03-19T09:36:19.437Z,56.44
2024-03-19T09:37:19.451Z,56.13
2024-03-19T09:38:19.439Z,55.34
2024-03-19T09:39:19.470Z,55.35
2024-03-19T09:40:19.443Z,55.28
2024-03-19T09:41:19.448Z,55.10
2024-03-19T09:42:19.377Z,55.18
2024-03-19T09:43:19.364Z,55.08
2024-03-19T09:44:19.405Z,55.15
2024-03-19T09:45:19.345Z,55.43
2024-03-19T09:46:19.400Z,54.99
2024-03-19T09:47:21.791Z,55.19
2024-03-19T09:48:19.320Z,54.99
2024-03-19T09:49:19.307Z,54.93
2024-03-19T09:50:19.331Z,54.36
2024-03-19T09:51:19.282Z,54.16
2024-03-19T09:52:19.270Z,54.60
2024-03-19T09:53:19.263Z,54.30
2024-03-19T09:54:19.479Z,54.41
2024-03-19T09:55:19.256Z,54.09
2024-03-19T09:56:19.229Z,53.90
2024-03-19T09:57:19.290Z,54.07
2024-03-19T09:58:19.255Z,53.49
2024-03-19T09:59:19.242Z,53.82
2024-03-19T10:00:19.214Z,53.81
2024-03-19T10:01:19.176Z,53.18
2024-03-19T10:02:19.187Z,52.44
2024-03-19T10:03:19.187Z,52.46
2024-03-19T10:04:19.168Z,53.02
2024-03-19T10:05:19.124Z,52.96
2024-03-19T10:06:19.118Z,52.37
2024-03-19T10:07:19.158Z,51.85
2024-03-19T10:08:19.272Z,51.99
2024-03-19T10:09:19.099Z,52.17
2024-03-19T10:10:19.246Z,52.18
2024-03-19T10:11:19.075Z,52.20
2024-03-19T10:12:19.114Z,51.72
2024-03-19T10:13:19.041Z,51.43
2024-03-19T10:14:19.113Z,51.36
2024-03-19T10:15:19.040Z,51.14
2024-03-19T10:16:19.030Z,50.82
2024-03-19T10:17:19.049Z,50.40
2024-03-19T10:18:19.003Z,50.08
2024-03-19T10:19:19.045Z,50.32
2024-03-19T10:20:19.065Z,50.00
2024-03-19T10:21:19.057Z,49.97
2024-03-19T10:22:18.958Z,49.89
2024-03-19T10:23:18.930Z,49.42
2024-03-19T10:24:19.301Z,49.04
2024-03-19T10:25:18.957Z,48.96
2024-03-19T10:26:18.893Z,49.78
2024-03-19T10:27:18.926Z,50.44
2024-03-19T10:28:18.950Z,49.77
2024-03-19T10:29:18.868Z,50.33
2024-03-19T10:30:18.969Z,49.77
2024-03-19T10:31:18.900Z,50.91
2024-03-19T10:32:25.485Z,51.33
2024-03-19T10:33:19.820Z,50.81
2024-03-19T10:34:18.808Z,50.26
2024-03-19T10:35:18.814Z,50.51
2024-03-19T10:36:18.780Z,50.12
2024-03-19T10:37:19.028Z,50.43
2024-03-19T10:38:29.223Z,49.84
2024-03-19T10:39:19.790Z,50.02
2024-03-19T10:40:18.803Z,49.73
2024-03-19T10:41:18.738Z,49.33
2024-03-19T10:42:18.723Z,49.88
2024-03-19T10:43:18.724Z,51.15
2024-03-19T10:44:18.703Z,52.16
2024-03-19T10:45:18.752Z,51.09
2024-03-19T10:46:18.684Z,49.25
2024-03-19T10:47:18.691Z,48.96
2024-03-19T10:48:18.736Z,50.30
2024-03-19T10:49:18.639Z,51.45
2024-03-19T10:50:18.633Z,49.47
2024-03-19T10:51:18.734Z,48.83
2024-03-19T10:52:18.611Z,48.91
2024-03-19T10:53:18.613Z,48.04
2024-03-19T10:54:18.633Z,47.39
2024-03-19T10:55:18.661Z,47.70
2024-03-19T10:56:18.587Z,47.53
2024-03-19T10:57:18.586Z,46.92
2024-03-19T10:58:18.571Z,46.35
2024-03-19T10:59:18.537Z,46.35
2024-03-19T11:00:18.541Z,46.78
2024-03-19T11:01:18.537Z,46.10
2024-03-19T11:02:18.514Z,45.52
2024-03-19T11:03:18.553Z,45.16
2024-03-19T11:04:18.491Z,45.42
2024-03-19T11:05:18.481Z,45.57
2024-03-19T11:06:18.472Z,44.51
2024-03-19T11:07:18.482Z,44.31
2024-03-19T11:08:18.466Z,45.50
2024-03-19T11:09:18.424Z,44.86
2024-03-19T11:10:18.461Z,47.14
2024-03-19T11:11:18.438Z,45.24
2024-03-19T11:12:18.422Z,45.06
2024-03-19T11:13:18.424Z,45.29
2024-03-19T11:14:18.360Z,45.09
2024-03-19T11:15:18.372Z,45.07
2024-03-19T11:16:18.343Z,45.54
2024-03-19T11:17:18.340Z,45.40
2024-03-19T11:18:18.371Z,45.09
2024-03-19T11:19:18.347Z,44.54
2024-03-19T11:20:18.356Z,44.42
2024-03-19T11:21:18.310Z,44.61
2024-03-19T11:22:18.292Z,45.76
2024-03-19T11:23:18.268Z,45.84
2024-03-19T11:24:18.280Z,46.24
2024-03-19T11:25:18.289Z,45.38
2024-03-19T11:26:18.247Z,45.68
2024-03-19T11:27:18.241Z,45.49
2024-03-19T11:28:18.260Z,45.97
2024-03-19T11:29:18.227Z,46.59
2024-03-19T11:30:18.414Z,48.27
2024-03-19T11:31:18.216Z,50.89
2024-03-19T11:32:18.227Z,50.53
2024-03-19T11:33:18.300Z,52.05
2024-03-19T11:34:18.159Z,47.42
2024-03-19T11:35:18.148Z,46.37
2024-03-19T11:36:18.206Z,46.67
2024-03-19T11:37:18.237Z,46.45
2024-03-19T11:38:18.131Z,46.03
2024-03-19T11:39:18.096Z,45.47
2024-03-19T11:40:18.156Z,45.26
2024-03-19T11:41:27.381Z,44.96
2024-03-19T11:42:19.065Z,44.85
2024-03-19T11:43:18.105Z,44.90
2024-03-19T11:44:18.040Z,44.75
2024-03-19T11:45:18.053Z,44.76
2024-03-19T11:46:18.159Z,44.76
2024-03-19T11:47:18.033Z,44.36
2024-03-19T11:48:17.993Z,45.06
2024-03-19T11:49:17.982Z,46.16
2024-03-19T11:50:18.046Z,44.91
2024-03-19T11:51:17.986Z,44.80
2024-03-19T11:52:17.966Z,44.51
2024-03-19T11:53:17.961Z,44.22
2024-03-19T11:54:18.096Z,43.82
2024-03-19T11:55:17.961Z,44.02
2024-03-19T11:56:17.950Z,43.91
2024-03-19T11:57:17.898Z,43.83
2024-03-19T11:58:17.893Z,45.79
2024-03-19T11:59:17.868Z,45.74
2024-03-19T12:00:18.012Z,44.64
2024-03-19T12:01:18.210Z,44.24
2024-03-19T12:02:17.854Z,43.91
2024-03-19T12:03:17.864Z,44.52
2024-03-19T12:04:17.834Z,45.07
2024-03-19T12:05:17.837Z,45.14
2024-03-19T12:06:17.896Z,44.55
2024-03-19T12:07:17.853Z,44.82
2024-03-19T12:08:17.825Z,44.47
2024-03-19T12:09:17.761Z,44.66
2024-03-19T12:10:17.749Z,44.42
2024-03-19T12:11:17.788Z,44.23
2024-03-19T12:12:17.990Z,44.04
2024-03-19T12:13:17.729Z,43.82
2024-03-19T12:14:17.759Z,44.18
2024-03-19T12:15:17.724Z,44.17
2024-03-19T12:16:17.754Z,44.17
2024-03-19T12:17:17.698Z,44.42
2024-03-19T12:18:17.738Z,44.74
2024-03-19T12:19:17.650Z,44.87
2024-03-19T12:20:17.701Z,44.86
2024-03-19T12:21:17.673Z,45.10
2024-03-19T12:22:17.686Z,45.49
2024-03-19T12:23:17.620Z,45.89
2024-03-19T12:24:17.608Z,45.55
2024-03-19T12:25:17.664Z,45.12
2024-03-19T12:26:17.577Z,44.79
2024-03-19T12:27:17.581Z,44.73
2024-03-19T12:28:17.576Z,44.82
2024-03-19T12:29:17.649Z,44.96
2024-03-19T12:30:17.555Z,44.73
2024-03-19T12:31:17.660Z,44.66
2024-03-19T12:32:17.565Z,44.66
2024-03-19T12:33:17.499Z,44.71
2024-03-19T12:34:17.504Z,44.78
2024-03-19T12:35:17.557Z,44.99
2024-03-19T12:36:17.501Z,45.11
2024-03-19T12:37:17.519Z,45.08
2024-03-19T12:38:17.465Z,45.02
2024-03-19T12:39:17.435Z,45.28
2024-03-19T12:40:17.441Z,45.24
2024-03-19T12:41:17.538Z,45.11
2024-03-19T12:42:17.429Z,45.14
2024-03-19T12:43:17.432Z,45.26
2024-03-19T12:44:17.394Z,45.78
2024-03-19T12:45:17.385Z,45.89
2024-03-19T12:46:17.393Z,46.01
2024-03-19T12:47:17.378Z,45.83
2024-03-19T12:48:17.447Z,45.92
2024-03-19T12:49:17.362Z,46.20
2024-03-19T12:50:17.338Z,46.23
2024-03-19T12:51:17.340Z,46.18
2024-03-19T12:52:17.332Z,45.92
2024-03-19T12:53:17.284Z,45.90